createdAt,value
2023-03-12T00:00:35.745Z,999.53
2023-03-12T00:01:30.477Z,999.57
2023-03-12T00:02:28.172Z,999.50
2023-03-12T00:03:28.112Z,999.47
2023-03-12T00:04:29.078Z,999.48
2023-03-12T00:05:29.102Z,999.55
2023-03-12T00:06:28.086Z,999.51
2023-03-12T00:07:28.097Z,999.51
2023-03-12T00:08:28.028Z,999.50
2023-03-12T00:09:28.072Z,999.55
2023-03-12T00:10:28.032Z,999.42
2023-03-12T00:11:27.994Z,999.50
2023-03-12T00:12:28.048Z,999.45
2023-03-12T00:13:28.008Z,999.50
2023-03-12T00:14:27.984Z,999.45
2023-03-12T00:15:27.965Z,999.44
2023-03-12T00:16:28.032Z,999.43
2023-03-12T00:17:27.960Z,999.47
2023-03-12T00:18:27.943Z,999.44
2023-03-12T00:19:27.954Z,999.40
2023-03-12T00:20:27.895Z,999.45
2023-03-12T00:21:27.900Z,999.49
2023-03-12T00:22:28.907Z,999.51
2023-03-12T00:23:27.885Z,999.51
2023-03-12T00:24:27.935Z,999.58
2023-03-12T00:25:27.877Z,999.59
2023-03-12T00:26:27.889Z,999.51
2023-03-12T00:27:28.847Z,999.55
2023-03-12T00:28:27.849Z,999.53
2023-03-12T00:29:27.806Z,999.56
2023-03-12T00:30:27.803Z,999.58
2023-03-12T00:31:28.915Z,999.60
2023-03-12T00:32:27.842Z,999.54
2023-03-12T00:33:27.759Z,999.57
2023-03-12T00:34:27.754Z,999.57
2023-03-12T00:35:27.779Z,999.59
2023-03-12T00:36:28.794Z,999.58
2023-03-12T00:37:27.714Z,999.65
2023-03-12T00:38:28.832Z,999.58
2023-03-12T00:39:27.712Z,999.57
2023-03-12T00:40:27.695Z,999.57
2023-03-12T00:41:27.725Z,999.63
2023-03-12T00:42:27.716Z,999.60
2023-03-12T00:43:27.670Z,999.59
2023-03-12T00:44:27.660Z,999.56
2023-03-12T00:45:27.624Z,999.56
2023-03-12T00:46:28.784Z,999.59
2023-03-12T00:47:27.610Z,999.61
2023-03-12T00:48:28.093Z,999.54
2023-03-12T00:49:27.584Z,999.57
2023-03-12T00:50:27.645Z,999.60
2023-03-12T00:51:28.706Z,999.63
2023-03-12T00:52:27.577Z,999.65
2023-03-12T00:53:27.574Z,999.61
2023-03-12T00:54:27.574Z,999.72
2023-03-12T00:55:27.564Z,999.71
2023-03-12T00:56:27.565Z,999.64
2023-03-12T00:57:28.546Z,999.66
2023-03-12T00:58:27.511Z,999.66
2023-03-12T00:59:27.548Z,999.64
2023-03-12T01:00:27.530Z,999.65
2023-03-12T01:01:27.480Z,999.64
2023-03-12T01:02:27.471Z,999.68
2023-03-12T01:03:27.478Z,999.71
2023-03-12T01:04:27.565Z,999.67
2023-03-12T01:05:27.435Z,999.70
2023-03-12T01:06:27.450Z,999.64
2023-03-12T01:07:27.399Z,999.66
2023-03-12T01:08:27.404Z,999.66
2023-03-12T01:09:27.474Z,999.67
2023-03-12T01:10:28.418Z,999.76
2023-03-12T01:11:27.397Z,999.69
2023-03-12T01:12:27.335Z,999.72
2023-03-12T01:13:27.386Z,999.73
2023-03-12T01:14:27.334Z,999.67
2023-03-12T01:15:27.334Z,999.69
2023-03-12T01:16:27.336Z,999.72
2023-03-12T01:17:27.330Z,999.67
2023-03-12T01:18:28.292Z,999.78
2023-03-12T01:19:27.270Z,999.73
2023-03-12T01:20:27.292Z,999.70
2023-03-12T01:21:27.284Z,999.70
2023-03-12T01:22:28.250Z,999.65
2023-03-12T01:23:27.263Z,999.65
2023-03-12T01:24:27.240Z,999.59
2023-03-12T01:25:28.217Z,999.75
2023-03-12T01:26:28.220Z,999.67
2023-03-12T01:27:27.227Z,999.68
2023-03-12T01:28:27.203Z,999.74
2023-03-12T01:29:28.200Z,999.68
2023-03-12T01:30:27.199Z,999.69
2023-03-12T01:31:27.218Z,999.70
2023-03-12T01:32:27.240Z,999.66
2023-03-12T01:33:27.171Z,999.66
2023-03-12T01:34:27.119Z,999.60
2023-03-12T01:35:28.210Z,999.65
2023-03-12T01:36:27.180Z,999.63
2023-03-12T01:37:28.141Z,999.68
2023-03-12T01:38:28.075Z,999.63
2023-03-12T01:39:28.066Z,999.66
2023-03-12T01:40:27.053Z,999.67
2023-03-12T01:41:27.121Z,999.61
2023-03-12T01:42:27.081Z,999.62
2023-03-12T01:43:28.014Z,999.61
2023-03-12T01:44:26.995Z,999.59
2023-03-12T01:45:28.061Z,999.63
2023-03-12T01:46:27.021Z,999.59
2023-03-12T01:47:27.038Z,999.57
2023-03-12T01:48:26.992Z,999.60
2023-03-12T01:49:27.964Z,999.59
2023-03-12T01:50:26.949Z,999.56
2023-03-12T01:51:26.948Z,999.59
2023-03-12T01:52:26.945Z,999.61
2023-03-12T01:53:26.946Z,999.58
2023-03-12T01:54:26.941Z,999.59
2023-03-12T01:55:26.883Z,999.54
2023-03-12T01:56:26.878Z,999.59
2023-03-12T01:57:26.867Z,999.57
2023-03-12T01:58:26.923Z,999.63
2023-03-12T01:59:26.866Z,999.58
2023-03-12T02:00:26.880Z,999.63
2023-03-12T02:01:26.917Z,999.66
2023-03-12T02:02:26.807Z,999.63
2023-03-12T02:03:27.824Z,999.58
2023-03-12T02:04:27.828Z,999.60
2023-03-12T02:05:26.796Z,999.63
2023-03-12T02:06:26.770Z,999.65
2023-03-12T02:07:26.768Z,999.57
2023-03-12T02:08:26.738Z,999.55
2023-03-12T02:09:27.748Z,999.62
2023-03-12T02:10:26.742Z,999.68
2023-03-12T02:11:26.750Z,999.63
2023-03-12T02:12:26.689Z,999.58
2023-03-12T02:13:27.700Z,999.67
2023-03-12T02:14:26.725Z,999.57
2023-03-12T02:15:26.684Z,999.68
2023-03-12T02:16:26.766Z,999.62
2023-03-12T02:17:26.669Z,999.67
2023-03-12T02:18:26.647Z,999.62
2023-03-12T02:19:26.617Z,999.64
2023-03-12T02:20:26.629Z,999.59
2023-03-12T02:21:26.643Z,999.59
2023-03-12T02:22:26.662Z,999.57
2023-03-12T02:23:26.628Z,999.64
2023-03-12T02:24:26.582Z,999.63
2023-03-12T02:25:27.578Z,999.62
2023-03-12T02:26:26.567Z,999.54
2023-03-12T02:27:26.542Z,999.57
2023-03-12T02:28:27.552Z,999.51
2023-03-12T02:29:26.541Z,999.52
2023-03-12T02:30:26.547Z,999.65
2023-03-12T02:31:26.534Z,999.63
2023-03-12T02:32:26.585Z,999.58
2023-03-12T02:33:26.525Z,999.61
2023-03-12T02:34:26.480Z,999.65
2023-03-12T02:35:26.498Z,999.69
2023-03-12T02:36:26.449Z,999.64
2023-03-12T02:37:26.484Z,999.63
2023-03-12T02:38:27.444Z,999.67
2023-03-12T02:39:26.445Z,999.66
2023-03-12T02:40:26.434Z,999.68
2023-03-12T02:41:26.410Z,999.70
2023-03-12T02:42:26.389Z,999.71
2023-03-12T02:43:26.388Z,999.75
2023-03-12T02:44:26.387Z,999.73
2023-03-12T02:45:26.352Z,999.75
2023-03-12T02:46:26.459Z,999.78
2023-03-12T02:47:27.035Z,999.81
2023-03-12T02:48:26.373Z,999.77
2023-03-12T02:49:26.301Z,999.82
2023-03-12T02:50:26.312Z,999.76
2023-03-12T02:51:27.324Z,999.85
2023-03-12T02:52:26.315Z,999.83
2023-03-12T02:53:27.265Z,999.76
2023-03-12T02:54:26.264Z,999.80
2023-03-12T02:55:26.303Z,999.81
2023-03-12T02:56:26.245Z,999.79
2023-03-12T02:57:26.263Z,999.84
2023-03-12T02:58:26.235Z,999.80
2023-03-12T02:59:27.275Z,999.85
2023-03-12T03:00:26.188Z,999.85
2023-03-12T03:01:26.248Z,999.82
2023-03-12T03:02:27.215Z,999.86
2023-03-12T03:03:26.278Z,999.89
2023-03-12T03:04:26.273Z,999.83
2023-03-12T03:05:26.132Z,999.85
2023-03-12T03:06:26.138Z,999.89
2023-03-12T03:07:26.125Z,999.92
2023-03-12T03:08:26.134Z,999.89
2023-03-12T03:09:26.177Z,999.93
2023-03-12T03:10:26.092Z,999.90
2023-03-12T03:11:26.094Z,999.90
2023-03-12T03:12:26.118Z,999.87
2023-03-12T03:13:26.048Z,999.85
2023-03-12T03:14:26.079Z,999.87
2023-03-12T03:15:26.118Z,999.89
2023-03-12T03:16:26.051Z,999.96
2023-03-12T03:17:26.008Z,1000.02
2023-03-12T03:18:26.008Z,1000.01
2023-03-12T03:19:25.994Z,999.99
2023-03-12T03:20:25.999Z,1000.01
2023-03-12T03:21:26.047Z,999.99
2023-03-12T03:22:25.984Z,1000.03
2023-03-12T03:23:25.986Z,1000.06
2023-03-12T03:24:25.969Z,1000.06
2023-03-12T03:25:26.919Z,1000.02
2023-03-12T03:26:25.946Z,1000.03
2023-03-12T03:27:25.928Z,1000.03
2023-03-12T03:28:25.907Z,1000.01
2023-03-12T03:29:25.913Z,1000.06
2023-03-12T03:30:25.899Z,1000.12
2023-03-12T03:31:25.949Z,1000.11
2023-03-12T03:32:25.888Z,1000.07
2023-03-12T03:33:25.853Z,1000.08
2023-03-12T03:34:25.863Z,1000.11
2023-03-12T03:35:25.877Z,1000.07
2023-03-12T03:36:25.833Z,1000.09
2023-03-12T03:37:25.820Z,1000.08
2023-03-12T03:38:25.837Z,1000.06
2023-03-12T03:39:25.788Z,1000.05
2023-03-12T03:40:25.792Z,1000.07
2023-03-12T03:41:25.749Z,1000.03
2023-03-12T03:42:25.760Z,1000.08
2023-03-12T03:43:25.787Z,1000.01
2023-03-12T03:44:25.702Z,1000.04
2023-03-12T03:45:25.713Z,1000.09
2023-03-12T03:46:25.738Z,1000.05
2023-03-12T03:47:25.692Z,1000.04
2023-03-12T03:48:26.716Z,1000.09
2023-03-12T03:49:25.708Z,1000.06
2023-03-12T03:50:25.676Z,1000.13
2023-03-12T03:51:25.726Z,1000.13
2023-03-12T03:52:25.651Z,1000.08
2023-03-12T03:53:25.619Z,1000.07
2023-03-12T03:54:25.615Z,1000.14
2023-03-12T03:55:25.622Z,1000.08
2023-03-12T03:56:25.616Z,1000.08
2023-03-12T03:57:25.630Z,1000.13
2023-03-12T03:58:25.597Z,1000.03
2023-03-12T03:59:25.579Z,1000.08
2023-03-12T04:00:25.568Z,1000.09
2023-03-12T04:01:25.567Z,1000.08
2023-03-12T04:02:25.575Z,1000.13
2023-03-12T04:03:25.595Z,1000.13
2023-03-12T04:04:26.516Z,1000.21
2023-03-12T04:05:25.616Z,1000.10
2023-03-12T04:06:25.550Z,1000.16
2023-03-12T04:07:25.497Z,1000.10
2023-03-12T04:08:25.516Z,1000.11
2023-03-12T04:09:25.471Z,1000.09
2023-03-12T04:10:25.443Z,1000.16
2023-03-12T04:11:26.463Z,1000.11
2023-03-12T04:12:25.436Z,1000.15
2023-03-12T04:13:25.448Z,1000.15
2023-03-12T04:14:26.405Z,1000.19
2023-03-12T04:15:25.395Z,1000.11
2023-03-12T04:16:26.468Z,1000.17
2023-03-12T04:17:25.444Z,1000.16
2023-03-12T04:18:25.452Z,1000.09
2023-03-12T04:19:25.341Z,1000.14
2023-03-12T04:20:26.360Z,1000.20
2023-03-12T04:21:26.324Z,1000.19
2023-03-12T04:22:26.406Z,1000.23
2023-03-12T04:23:25.303Z,1000.18
2023-03-12T04:24:25.294Z,1000.16
2023-03-12T04:25:25.272Z,1000.19
2023-03-12T04:26:26.287Z,1000.23
2023-03-12T04:27:25.268Z,1000.20
2023-03-12T04:28:25.242Z,1000.25
2023-03-12T04:29:25.242Z,1000.20
2023-03-12T04:30:25.305Z,1000.22
2023-03-12T04:31:26.343Z,1000.25
2023-03-12T04:32:25.275Z,1000.33
2023-03-12T04:33:25.308Z,1000.23
2023-03-12T04:34:25.182Z,1000.25
2023-03-12T04:35:25.191Z,1000.21
2023-03-12T04:36:25.235Z,1000.20
2023-03-12T04:37:26.156Z,1000.22
2023-03-12T04:38:25.158Z,1000.24
2023-03-12T04:39:25.168Z,1000.22
2023-03-12T04:40:25.144Z,1000.22
2023-03-12T04:41:25.172Z,1000.20
2023-03-12T04:42:25.129Z,1000.17
2023-03-12T04:43:25.097Z,1000.16
2023-03-12T04:44:26.122Z,1000.19
2023-03-12T04:45:25.094Z,1000.22
2023-03-12T04:46:25.192Z,1000.17
2023-03-12T04:47:25.051Z,1000.18
2023-03-12T04:48:25.052Z,1000.14
2023-03-12T04:49:25.046Z,1000.19
2023-03-12T04:50:25.022Z,1000.15
2023-03-12T04:51:25.067Z,1000.15
2023-03-12T04:52:25.041Z,1000.16
2023-03-12T04:53:25.051Z,1000.19
2023-03-12T04:54:25.001Z,1000.14
2023-03-12T04:55:24.968Z,1000.16
2023-03-12T04:56:24.967Z,1000.19
2023-03-12T04:57:25.002Z,1000.21
2023-03-12T04:58:24.964Z,1000.22
2023-03-12T04:59:24.926Z,1000.21
2023-03-12T05:00:24.925Z,1000.14
2023-03-12T05:01:25.941Z,1000.18
2023-03-12T05:02:24.910Z,1000.15
2023-03-12T05:03:24.950Z,1000.22
2023-03-12T05:04:24.860Z,1000.19
2023-03-12T05:05:24.907Z,1000.24
2023-03-12T05:06:24.852Z,1000.20
2023-03-12T05:07:24.925Z,1000.17
2023-03-12T05:08:25.823Z,1000.21
2023-03-12T05:09:24.843Z,1000.18
2023-03-12T05:10:24.884Z,1000.20
2023-03-12T05:11:24.805Z,1000.18
2023-03-12T05:12:24.807Z,1000.23
2023-03-12T05:13:24.785Z,1000.22
2023-03-12T05:14:25.800Z,1000.23
2023-03-12T05:15:24.773Z,1000.22
2023-03-12T05:16:24.821Z,1000.19
2023-03-12T05:17:24.800Z,1000.17
2023-03-12T05:18:24.740Z,1000.21
2023-03-12T05:19:24.722Z,1000.20
2023-03-12T05:20:24.734Z,1000.28
2023-03-12T05:21:25.740Z,1000.19
2023-03-12T05:22:24.694Z,1000.17
2023-03-12T05:23:24.679Z,1000.27
2023-03-12T05:24:24.666Z,1000.16
2023-03-12T05:25:24.684Z,1000.21
2023-03-12T05:26:24.722Z,1000.27
2023-03-12T05:27:24.655Z,1000.23
2023-03-12T05:28:24.663Z,1000.26
2023-03-12T05:29:24.613Z,1000.29
2023-03-12T05:30:24.599Z,1000.24
2023-03-12T05:31:24.629Z,1000.22
2023-03-12T05:32:24.627Z,1000.25
2023-03-12T05:33:24.585Z,1000.23
2023-03-12T05:34:25.551Z,1000.25
2023-03-12T05:35:25.548Z,1000.21
2023-03-12T05:36:25.558Z,1000.23
2023-03-12T05:37:24.520Z,1000.27
2023-03-12T05:38:24.536Z,1000.27
2023-03-12T05:39:24.496Z,1000.21
2023-03-12T05:40:24.537Z,1000.23
2023-03-12T05:41:24.494Z,1000.25
2023-03-12T05:42:24.482Z,1000.26
2023-03-12T05:43:24.485Z,1000.26
2023-03-12T05:44:24.476Z,1000.26
2023-03-12T05:45:24.466Z,1000.30
2023-03-12T05:46:25.443Z,1000.25
2023-03-12T05:47:24.420Z,1000.26
2023-03-12T05:48:24.460Z,1000.28
2023-03-12T05:49:24.396Z,1000.28
2023-03-12T05:50:24.390Z,1000.25
2023-03-12T05:51:25.368Z,1000.22
2023-03-12T05:52:24.357Z,1000.27
2023-03-12T05:53:24.366Z,1000.26
2023-03-12T05:54:24.319Z,1000.29
2023-03-12T05:55:24.341Z,1000.30
2023-03-12T05:56:24.345Z,1000.20
2023-03-12T05:57:25.314Z,1000.20
2023-03-12T05:58:24.308Z,1000.26
2023-03-12T05:59:24.295Z,1000.23
2023-03-12T06:00:24.281Z,1000.18
2023-03-12T06:01:24.268Z,1000.24
2023-03-12T06:02:24.288Z,1000.28
2023-03-12T06:03:24.249Z,1000.24
2023-03-12T06:04:24.208Z,1000.31
2023-03-12T06:05:24.236Z,1000.26
2023-03-12T06:06:24.206Z,1000.22
2023-03-12T06:07:24.225Z,1000.28
2023-03-12T06:08:25.218Z,1000.22
2023-03-12T06:09:24.184Z,1000.21
2023-03-12T06:10:24.157Z,1000.19
2023-03-12T06:11:24.165Z,1000.25
2023-03-12T06:12:24.142Z,1000.19
2023-03-12T06:13:24.140Z,1000.22
2023-03-12T06:14:25.157Z,1000.20
2023-03-12T06:15:25.091Z,1000.17
2023-03-12T06:16:24.129Z,1000.18
2023-03-12T06:17:24.151Z,1000.17
2023-03-12T06:18:25.087Z,1000.21
2023-03-12T06:19:25.099Z,1000.19
2023-03-12T06:20:24.074Z,1000.11
2023-03-12T06:21:24.076Z,1000.12
2023-03-12T06:22:24.040Z,1000.08
2023-03-12T06:23:24.051Z,1000.15
2023-03-12T06:24:25.023Z,1000.18
2023-03-12T06:25:24.012Z,1000.17
2023-03-12T06:26:24.995Z,1000.16
2023-03-12T06:27:23.989Z,1000.20
2023-03-12T06:28:23.956Z,1000.15
2023-03-12T06:29:23.983Z,1000.20
2023-03-12T06:30:23.968Z,1000.17
2023-03-12T06:31:24.078Z,1000.24
2023-03-12T06:32:24.962Z,1000.23
2023-03-12T06:33:24.906Z,1000.29
2023-03-12T06:34:23.968Z,1000.28
2023-03-12T06:35:23.929Z,1000.30
2023-03-12T06:36:23.885Z,1000.26
2023-03-12T06:37:23.937Z,1000.32
2023-03-12T06:38:23.873Z,1000.26
2023-03-12T06:39:23.850Z,1000.21
2023-03-12T06:40:24.844Z,1000.27
2023-03-12T06:41:24.857Z,1000.27
2023-03-12T06:42:23.815Z,1000.23
2023-03-12T06:43:24.842Z,1000.25
2023-03-12T06:44:23.850Z,1000.27
2023-03-12T06:45:23.846Z,1000.26
2023-03-12T06:46:23.840Z,1000.25
2023-03-12T06:47:23.777Z,1000.31
2023-03-12T06:48:23.759Z,1000.29
2023-03-12T06:49:23.811Z,1000.36
2023-03-12T06:50:23.769Z,1000.31
2023-03-12T06:51:23.732Z,1000.30
2023-03-12T06:52:23.724Z,1000.34
2023-03-12T06:53:24.709Z,1000.30
2023-03-12T06:54:23.687Z,1000.34
2023-03-12T06:55:23.710Z,1000.28
2023-03-12T06:56:23.705Z,1000.36
2023-03-12T06:57:23.692Z,1000.25
2023-03-12T06:58:23.668Z,1000.25
2023-03-12T06:59:23.639Z,1000.24
2023-03-12T07:00:23.658Z,1000.26
2023-03-12T07:01:23.654Z,1000.34
2023-03-12T07:02:23.654Z,1000.29
2023-03-12T07:03:23.576Z,1000.27
2023-03-12T07:04:23.602Z,1000.23
2023-03-12T07:05:23.697Z,1000.27
2023-03-12T07:06:23.612Z,1000.33
2023-03-12T07:07:23.563Z,1000.35
2023-03-12T07:08:24.558Z,1000.30
2023-03-12T07:09:23.545Z,1000.29
2023-03-12T07:10:23.531Z,1000.23
2023-03-12T07:11:23.510Z,1000.27
2023-03-12T07:12:23.543Z,1000.27
2023-03-12T07:13:24.478Z,1000.22
2023-03-12T07:14:23.465Z,1000.24
2023-03-12T07:15:24.457Z,1000.28
2023-03-12T07:16:23.570Z,1000.20
2023-03-12T07:17:23.492Z,1000.25
2023-03-12T07:18:23.493Z,1000.24
2023-03-12T07:19:23.453Z,1000.25
2023-03-12T07:20:24.420Z,1000.24
2023-03-12T07:21:23.460Z,1000.18
2023-03-12T07:22:23.416Z,1000.21
2023-03-12T07:23:23.374Z,1000.17
2023-03-12T07:24:23.388Z,1000.24
2023-03-12T07:25:24.366Z,1000.11
2023-03-12T07:26:23.352Z,1000.11
2023-03-12T07:27:23.398Z,1000.11
2023-03-12T07:28:23.362Z,1000.15
2023-03-12T07:29:23.317Z,1000.18
2023-03-12T07:30:23.321Z,1000.12
2023-03-12T07:31:23.382Z,1000.12
2023-03-12T07:32:24.390Z,1000.10
2023-03-12T07:33:23.480Z,1000.10
2023-03-12T07:34:23.593Z,1000.10
2023-03-12T07:35:23.414Z,1000.14
2023-03-12T07:36:23.831Z,1000.14
2023-03-12T07:37:23.218Z,1000.07
2023-03-12T07:38:23.275Z,1000.16
2023-03-12T07:39:23.244Z,1000.12
2023-03-12T07:40:23.217Z,1000.16
2023-03-12T07:41:23.262Z,1000.19
2023-03-12T07:42:23.256Z,1000.19
2023-03-12T07:43:24.204Z,1000.11
2023-03-12T07:44:23.143Z,1000.17
2023-03-12T07:45:23.257Z,1000.12
2023-03-12T07:46:23.191Z,1000.14
2023-03-12T07:47:24.637Z,1000.11
2023-03-12T07:48:24.201Z,1000.12
2023-03-12T07:49:24.106Z,1000.10
2023-03-12T07:50:23.243Z,1000.13
2023-03-12T07:51:23.101Z,1000.05
2023-03-12T07:52:23.066Z,1000.08
2023-03-12T07:53:23.057Z,1000.04
2023-03-12T07:54:23.097Z,1000.12
2023-03-12T07:55:23.053Z,1000.08
2023-03-12T07:56:23.326Z,1000.06
2023-03-12T07:57:23.083Z,1000.04
2023-03-12T07:58:23.151Z,1000.10
2023-03-12T07:59:24.070Z,1000.08
2023-03-12T08:00:23.013Z,1000.10
2023-03-12T08:01:23.000Z,1000.11
2023-03-12T08:02:23.139Z,1000.08
2023-03-12T08:03:23.240Z,1000.08
2023-03-12T08:04:23.158Z,1000.08
2023-03-12T08:05:22.964Z,1000.10
2023-03-12T08:06:22.917Z,1000.03
2023-03-12T08:07:23.040Z,1000.11
2023-03-12T08:08:23.905Z,1000.10
2023-03-12T08:09:22.872Z,1000.10
2023-03-12T08:10:22.909Z,1000.07
2023-03-12T08:11:22.865Z,1000.14
2023-03-12T08:12:22.949Z,1000.11
2023-03-12T08:13:22.978Z,1000.12
2023-03-12T08:14:22.964Z,1000.08
2023-03-12T08:15:22.812Z,1000.11
2023-03-12T08:16:23.851Z,1000.09
2023-03-12T08:17:22.784Z,1000.11
2023-03-12T08:18:22.773Z,1000.13
2023-03-12T08:19:22.777Z,1000.13
2023-03-12T08:20:22.754Z,1000.12
2023-03-12T08:21:22.750Z,1000.13
2023-03-12T08:22:22.821Z,1000.08
2023-03-12T08:23:22.762Z,1000.04
2023-03-12T08:24:23.774Z,1000.04
2023-03-12T08:25:23.705Z,999.99
2023-03-12T08:26:22.682Z,999.94
2023-03-12T08:27:22.665Z,999.97
2023-03-12T08:28:22.687Z,999.98
2023-03-12T08:29:22.675Z,999.94
2023-03-12T08:30:22.689Z,999.97
2023-03-12T08:31:22.660Z,1000.02
2023-03-12T08:32:22.762Z,999.96
2023-03-12T08:33:22.631Z,999.93
2023-03-12T08:34:22.628Z,999.92
2023-03-12T08:35:23.646Z,999.95
2023-03-12T08:36:22.795Z,999.91
2023-03-12T08:37:22.587Z,999.96
2023-03-12T08:38:22.613Z,999.88
2023-03-12T08:39:22.552Z,999.89
2023-03-12T08:40:22.550Z,999.87
2023-03-12T08:41:22.541Z,999.78
2023-03-12T08:42:22.494Z,999.79
2023-03-12T08:43:22.501Z,999.83
2023-03-12T08:44:22.522Z,999.83
2023-03-12T08:45:23.527Z,999.79
2023-03-12T08:46:23.562Z,999.74
2023-03-12T08:47:22.521Z,999.79
2023-03-12T08:48:22.433Z,999.81
2023-03-12T08:49:23.449Z,999.80
2023-03-12T08:50:22.463Z,999.80
2023-03-12T08:51:22.433Z,999.79
2023-03-12T08:52:23.482Z,999.75
2023-03-12T08:53:22.436Z,999.75
2023-03-12T08:54:22.409Z,999.81
2023-03-12T08:55:22.367Z,999.72
2023-03-12T08:56:22.361Z,999.80
2023-03-12T08:57:22.354Z,999.75
2023-03-12T08:58:23.383Z,999.72
2023-03-12T08:59:22.387Z,999.78
2023-03-12T09:00:23.339Z,999.76
2023-03-12T09:01:22.316Z,999.74
2023-03-12T09:02:22.314Z,999.76
2023-03-12T09:03:23.432Z,999.77
2023-03-12T09:04:22.355Z,999.74
2023-03-12T09:05:23.252Z,999.74
2023-03-12T09:06:22.269Z,999.75
2023-03-12T09:07:22.264Z,999.75
2023-03-12T09:08:22.272Z,999.68
2023-03-12T09:09:22.236Z,999.76
2023-03-12T09:10:22.252Z,999.73
2023-03-12T09:11:22.208Z,999.73
2023-03-12T09:12:22.222Z,999.74
2023-03-12T09:13:23.187Z,999.67
2023-03-12T09:14:57.985Z,999.61
2023-03-12T09:15:23.184Z,999.62
2023-03-12T09:16:22.296Z,999.66
2023-03-12T09:17:23.200Z,999.61
2023-03-12T09:18:22.116Z,999.58
2023-03-12T09:19:22.139Z,999.59
2023-03-12T09:20:22.114Z,999.58
2023-03-12T09:21:22.090Z,999.59
2023-03-12T09:22:22.131Z,999.63
2023-03-12T09:23:22.083Z,999.63
2023-03-12T09:24:23.054Z,999.63
2023-03-12T09:25:22.089Z,999.65
2023-03-12T09:26:23.059Z,999.63
2023-03-12T09:27:22.024Z,999.58
2023-03-12T09:28:22.053Z,999.56
2023-03-12T09:29:21.999Z,999.56
2023-03-12T09:30:22.101Z,999.54
2023-03-12T09:31:22.400Z,999.55
2023-03-12T09:32:21.976Z,999.56
2023-03-12T09:33:21.985Z,999.55
2023-03-12T09:34:21.991Z,999.55
2023-03-12T09:35:22.946Z,999.53
2023-03-12T09:36:22.958Z,999.52
2023-03-12T09:37:24.091Z,999.51
2023-03-12T09:38:21.925Z,999.51
2023-03-12T09:39:21.902Z,999.53
2023-03-12T09:40:22.869Z,999.53
2023-03-12T09:41:21.891Z,999.49
2023-03-12T09:42:21.913Z,999.50
2023-03-12T09:43:21.862Z,999.49
2023-03-12T09:44:22.860Z,999.46
2023-03-12T09:45:21.844Z,999.51
2023-03-12T09:46:21.877Z,999.49
2023-03-12T09:47:21.825Z,999.38
2023-03-12T09:48:21.873Z,999.44
2023-03-12T09:49:21.789Z,999.42
2023-03-12T09:50:22.775Z,999.42
2023-03-12T09:51:21.780Z,999.41
2023-03-12T09:52:21.784Z,999.44
2023-03-12T09:53:21.747Z,999.42
2023-03-12T09:54:21.770Z,999.39
2023-03-12T09:55:21.717Z,999.36
2023-03-12T09:56:21.732Z,999.35
2023-03-12T09:57:21.718Z,999.36
2023-03-12T09:58:22.724Z,999.41
2023-03-12T09:59:21.678Z,999.33
2023-03-12T10:00:22.682Z,999.38
2023-03-12T10:01:29.337Z,999.35
2023-03-12T10:02:22.678Z,999.33
2023-03-12T10:03:21.716Z,999.27
2023-03-12T10:04:22.654Z,999.25
2023-03-12T10:05:21.659Z,999.28
2023-03-12T10:06:21.662Z,999.25
2023-03-12T10:07:21.589Z,999.20
2023-03-12T10:08:26.385Z,999.15
2023-03-12T10:09:22.569Z,999.15
2023-03-12T10:10:21.554Z,999.12
2023-03-12T10:11:21.533Z,999.16
2023-03-12T10:12:21.533Z,999.14
2023-03-12T10:13:21.555Z,999.05
2023-03-12T10:14:24.124Z,999.11
2023-03-12T10:15:21.493Z,999.04
2023-03-12T10:16:21.592Z,999.06
2023-03-12T10:17:21.491Z,999.06
2023-03-12T10:18:21.647Z,999.08
2023-03-12T10:19:21.489Z,999.05
2023-03-12T10:20:21.460Z,999.05
2023-03-12T10:21:22.418Z,999.12
2023-03-12T10:22:21.409Z,999.04
2023-03-12T10:23:21.407Z,999.01
2023-03-12T10:24:23.519Z,999.08
2023-03-12T10:25:21.435Z,999.07
2023-03-12T10:26:21.390Z,999.10
2023-03-12T10:27:21.363Z,999.08
2023-03-12T10:28:21.366Z,999.09
2023-03-12T10:29:21.364Z,999.16
2023-03-12T10:30:21.403Z,999.17
2023-03-12T10:31:21.336Z,999.13
2023-03-12T10:32:21.445Z,999.20
2023-03-12T10:33:21.302Z,999.15
2023-03-12T10:34:21.355Z,999.18
2023-03-12T10:35:22.278Z,999.21
2023-03-12T10:36:22.279Z,999.18
2023-03-12T10:37:22.267Z,999.09
2023-03-12T10:38:21.263Z,999.11
2023-03-12T10:39:21.275Z,999.09
2023-03-12T10:40:21.299Z,999.13
2023-03-12T10:41:21.200Z,999.07
2023-03-12T10:42:21.217Z,999.06
2023-03-12T10:43:21.215Z,999.11
2023-03-12T10:44:21.229Z,999.06
2023-03-12T10:45:21.174Z,999.02
2023-03-12T10:46:21.312Z,998.94
2023-03-12T10:47:21.129Z,998.94
2023-03-12T10:48:21.155Z,999.06
2023-03-12T10:49:21.158Z,999.02
2023-03-12T10:50:21.126Z,998.97
2023-03-12T10:51:21.143Z,998.88
2023-03-12T10:52:21.125Z,998.88
2023-03-12T10:53:21.078Z,998.88
2023-03-12T10:54:21.071Z,998.84
2023-03-12T10:55:22.052Z,998.90
2023-03-12T10:56:21.100Z,998.83
2023-03-12T10:57:21.044Z,998.84
2023-03-12T10:58:21.054Z,998.86
2023-03-12T10:59:21.070Z,998.82
2023-03-12T11:00:21.023Z,998.84
2023-03-12T11:01:21.093Z,998.85
2023-03-12T11:02:21.005Z,998.88
2023-03-12T11:03:21.056Z,998.84
2023-03-12T11:04:20.992Z,998.81
2023-03-12T11:05:20.959Z,998.81
2023-03-12T11:06:21.015Z,998.86
2023-03-12T11:07:20.912Z,998.86
2023-03-12T11:08:21.898Z,998.85
2023-03-12T11:09:20.974Z,998.85
2023-03-12T11:10:22.784Z,998.82
2023-03-12T11:11:21.864Z,998.74
2023-03-12T11:12:20.902Z,998.67
2023-03-12T11:13:20.864Z,998.69
2023-03-12T11:14:20.848Z,998.69
2023-03-12T11:15:20.855Z,998.69
2023-03-12T11:16:20.897Z,998.61
2023-03-12T11:17:20.870Z,998.67
2023-03-12T11:18:21.862Z,998.59
2023-03-12T11:19:20.788Z,998.61
2023-03-12T11:20:20.840Z,998.56
2023-03-12T11:21:20.776Z,998.58
2023-03-12T11:22:20.807Z,998.57
2023-03-12T11:23:20.762Z,998.50
2023-03-12T11:24:20.749Z,998.49
2023-03-12T11:25:20.728Z,998.45
2023-03-12T11:26:20.795Z,998.45
2023-03-12T11:27:20.741Z,998.43
2023-03-12T11:28:20.751Z,998.40
2023-03-12T11:29:20.713Z,998.40
2023-03-12T11:30:20.694Z,998.32
2023-03-12T11:31:20.777Z,998.37
2023-03-12T11:32:20.729Z,998.35
2023-03-12T11:33:21.640Z,998.36
2023-03-12T11:34:21.667Z,998.35
2023-03-12T11:35:20.717Z,998.34
2023-03-12T11:36:20.597Z,998.30
2023-03-12T11:37:20.597Z,998.29
2023-03-12T11:38:21.575Z,998.33
2023-03-12T11:39:21.620Z,998.26
2023-03-12T11:40:20.648Z,998.25
2023-03-12T11:41:20.576Z,998.14
2023-03-12T11:42:21.556Z,998.09
2023-03-12T11:43:29.354Z,998.03
2023-03-12T11:44:21.517Z,998.04
2023-03-12T11:45:20.520Z,998.04
2023-03-12T11:46:20.537Z,997.93
2023-03-12T11:47:20.563Z,997.97
2023-03-12T11:48:20.525Z,997.99
2023-03-12T11:49:20.481Z,998.01
2023-03-12T11:50:20.581Z,998.00
2023-03-12T11:51:20.445Z,998.01
2023-03-12T11:52:20.509Z,997.94
2023-03-12T11:53:20.486Z,997.98
2023-03-12T11:54:20.462Z,997.96
2023-03-12T11:55:21.425Z,997.95
2023-03-12T11:56:21.392Z,997.97
2023-03-12T11:57:20.391Z,997.86
2023-03-12T11:58:21.398Z,997.80
2023-03-12T11:59:20.383Z,997.83
2023-03-12T12:00:21.397Z,997.81
2023-03-12T12:01:20.335Z,997.88
2023-03-12T12:02:20.408Z,997.74
2023-03-12T12:03:20.401Z,997.81
2023-03-12T12:04:20.332Z,997.80
2023-03-12T12:05:21.292Z,997.74
2023-03-12T12:06:20.300Z,997.75
2023-03-12T12:07:20.258Z,997.77
2023-03-12T12:08:20.273Z,997.77
2023-03-12T12:09:21.278Z,997.67
2023-03-12T12:10:20.275Z,997.70
2023-03-12T12:11:20.267Z,997.60
2023-03-12T12:12:21.234Z,997.59
2023-03-12T12:13:20.212Z,997.61
2023-03-12T12:14:21.226Z,997.49
2023-03-12T12:15:20.183Z,997.57
2023-03-12T12:16:20.265Z,997.52
2023-03-12T12:17:20.154Z,997.52
2023-03-12T12:18:20.158Z,997.53